sensor_id;sensor_type;location;lat;lon;timestamp;pressure;altitude;pressure_sealevel;temperature;humidity
42007;BME280;27696;42.704;23.304;2022-10-23T00:00:39;95757.31;;;21.07;40.40
42007;BME280;27696;42.704;23.304;2022-10-23T00:03:05;95757.31;;;21.37;39.85
42007;BME280;27696;42.704;23.304;2022-10-23T00:05:32;95758.25;;;21.48;39.63
42007;BME280;27696;42.704;23.304;2022-10-23T00:07:58;95754.56;;;21.07;39.53
42007;BME280;27696;42.704;23.304;2022-10-23T00:10:24;95762.03;;;21.66;38.75
42007;BME280;27696;42.704;23.304;2022-10-23T00:12:51;95753.81;;;21.06;40.18
42007;BME280;27696;42.704;23.304;2022-10-23T00:15:18;95760.31;;;21.09;40.01
42007;BME280;27696;42.704;23.304;2022-10-23T00:17:44;95764.84;;;21.57;39.15
42007;BME280;27696;42.704;23.304;2022-10-23T00:20:10;95741.78;;;21.43;39.23
42007;BME280;27696;42.704;23.304;2022-10-23T00:22:36;95727.88;;;20.86;40.55
42007;BME280;27696;42.704;23.304;2022-10-23T00:25:03;95729.44;;;21.32;39.56
42007;BME280;27696;42.704;23.304;2022-10-23T00:27:30;95742.63;;;21.19;39.95
42007;BME280;27696;42.704;23.304;2022-10-23T00:29:55;95735.31;;;21.76;38.60
42007;BME280;27696;42.704;23.304;2022-10-23T00:32:22;95752.97;;;21.30;39.59
42007;BME280;27696;42.704;23.304;2022-10-23T00:34:48;95752.41;;;21.56;39.27
42007;BME280;27696;42.704;23.304;2022-10-23T00:37:15;95741.47;;;21.71;38.58
42007;BME280;27696;42.704;23.304;2022-10-23T00:39:41;95745.06;;;22.13;38.09
42007;BME280;27696;42.704;23.304;2022-10-23T00:42:06;95750.88;;;21.85;38.07
42007;BME280;27696;42.704;23.304;2022-10-23T00:46:58;95743.38;;;21.64;38.63
42007;BME280;27696;42.704;23.304;2022-10-23T00:49:24;95741.78;;;21.43;38.98
42007;BME280;27696;42.704;23.304;2022-10-23T00:51:56;95731.06;;;21.90;37.95
42007;BME280;27696;42.704;23.304;2022-10-23T00:54:24;95721.81;;;21.87;37.94
42007;BME280;27696;42.704;23.304;2022-10-23T00:56:52;95721.84;;;21.72;37.64
42007;BME280;27696;42.704;23.304;2022-10-23T00:59:20;95726.78;;;21.53;38.23
42007;BME280;27696;42.704;23.304;2022-10-23T01:01:45;95738.47;;;20.94;39.74
42007;BME280;27696;42.704;23.304;2022-10-23T01:04:11;95733.56;;;21.13;39.35
42007;BME280;27696;42.704;23.304;2022-10-23T01:06:38;95748.88;;;20.07;40.93
42007;BME280;27696;42.704;23.304;2022-10-23T01:14:06;95729.94;;;20.52;39.94
42007;BME280;27696;42.704;23.304;2022-10-23T01:16:42;95788.22;;;19.11;43.18
42007;BME280;27696;42.704;23.304;2022-10-23T01:19:15;95780.03;;;19.11;43.40
42007;BME280;27696;42.704;23.304;2022-10-23T01:26:48;95798.34;;;19.11;43.69
42007;BME280;27696;42.704;23.304;2022-10-23T01:29:20;95795.03;;;19.07;43.53
42007;BME280;27696;42.704;23.304;2022-10-23T01:31:54;95802.41;;;19.34;42.97
42007;BME280;27696;42.704;23.304;2022-10-23T01:34:22;95803.41;;;19.55;42.56
42007;BME280;27696;42.704;23.304;2022-10-23T01:36:50;95799.31;;;20.12;41.62
42007;BME280;27696;42.704;23.304;2022-10-23T01:39:22;95805.66;;;20.18;41.66
42007;BME280;27696;42.704;23.304;2022-10-23T01:41:53;95805.72;;;20.33;41.22
42007;BME280;27696;42.704;23.304;2022-10-23T01:44:25;95814.94;;;20.12;41.64
42007;BME280;27696;42.704;23.304;2022-10-23T01:46:52;95816.44;;;20.03;41.67
42007;BME280;27696;42.704;23.304;2022-10-23T01:49:19;95805.56;;;20.61;40.77
42007;BME280;27696;42.704;23.304;2022-10-23T01:51:47;95789.34;;;20.57;40.65
42007;BME280;27696;42.704;23.304;2022-10-23T01:54:15;95789.56;;;19.87;41.71
42007;BME280;27696;42.704;23.304;2022-10-23T01:56:42;95800.25;;;19.57;42.41
42007;BME280;27696;42.704;23.304;2022-10-23T01:59:09;95801.69;;;20.77;40.31
42007;BME280;27696;42.704;23.304;2022-10-23T02:01:36;95820.47;;;20.51;40.88
42007;BME280;27696;42.704;23.304;2022-10-23T02:04:05;95812.88;;;20.55;40.68
42007;BME280;27696;42.704;23.304;2022-10-23T02:06:32;95813.50;;;20.98;39.96
42007;BME280;27696;42.704;23.304;2022-10-23T02:08:58;95819.78;;;20.90;40.09
42007;BME280;27696;42.704;23.304;2022-10-23T02:11:24;95828.72;;;21.14;39.65
42007;BME280;27696;42.704;23.304;2022-10-23T02:13:55;95829.50;;;20.66;40.54
42007;BME280;27696;42.704;23.304;2022-10-23T02:21:13;95830.88;;;21.25;39.55
42007;BME280;27696;42.704;23.304;2022-10-23T02:29:03;95818.75;;;21.71;38.66
42007;BME280;27696;42.704;23.304;2022-10-23T02:31:29;95827.41;;;21.40;39.48
42007;BME280;27696;42.704;23.304;2022-10-23T02:33:56;95822.03;;;21.15;39.64
42007;BME280;27696;42.704;23.304;2022-10-23T02:36:22;95837.66;;;21.15;39.43
42007;BME280;27696;42.704;23.304;2022-10-23T02:38:48;95825.53;;;21.31;39.19
42007;BME280;27696;42.704;23.304;2022-10-23T02:43:48;95823.44;;;21.11;39.67
42007;BME280;27696;42.704;23.304;2022-10-23T02:46:27;95832.97;;;21.30;39.03
42007;BME280;27696;42.704;23.304;2022-10-23T02:48:57;95831.91;;;21.28;39.08
42007;BME280;27696;42.704;23.304;2022-10-23T02:51:49;95837.97;;;21.47;38.87
42007;BME280;27696;42.704;23.304;2022-10-23T02:54:19;95832.50;;;21.47;38.78
42007;BME280;27696;42.704;23.304;2022-10-23T02:56:57;95830.28;;;21.60;38.58
42007;BME280;27696;42.704;23.304;2022-10-23T03:02:03;95839.41;;;21.03;39.29
42007;BME280;27696;42.704;23.304;2022-10-23T03:04:32;95841.03;;;21.79;38.13
42007;BME280;27696;42.704;23.304;2022-10-23T03:06:57;95834.22;;;21.74;38.39
42007;BME280;27696;42.704;23.304;2022-10-23T03:09:23;95840.59;;;21.56;38.46
42007;BME280;27696;42.704;23.304;2022-10-23T03:11:50;95840.38;;;21.69;38.42
42007;BME280;27696;42.704;23.304;2022-10-23T03:14:18;95832.59;;;21.98;37.81
42007;BME280;27696;42.704;23.304;2022-10-23T03:16:44;95838.63;;;21.42;39.14
42007;BME280;27696;42.704;23.304;2022-10-23T03:19:12;95844.38;;;21.44;39.32
42007;BME280;27696;42.704;23.304;2022-10-23T03:21:38;95846.50;;;21.64;39.29
42007;BME280;27696;42.704;23.304;2022-10-23T03:24:03;95852.66;;;21.49;39.26
42007;BME280;27696;42.704;23.304;2022-10-23T03:26:29;95852.88;;;21.76;38.77
42007;BME280;27696;42.704;23.304;2022-10-23T03:28:56;95853.81;;;21.58;39.33
42007;BME280;27696;42.704;23.304;2022-10-23T03:31:21;95852.44;;;21.62;39.20
42007;BME280;27696;42.704;23.304;2022-10-23T03:33:48;95861.09;;;22.06;38.34
42007;BME280;27696;42.704;23.304;2022-10-23T03:36:13;95860.81;;;22.04;38.50
42007;BME280;27696;42.704;23.304;2022-10-23T03:38:39;95862.31;;;22.05;38.38
42007;BME280;27696;42.704;23.304;2022-10-23T03:41:05;95866.84;;;22.08;38.48
42007;BME280;27696;42.704;23.304;2022-10-23T03:43:31;95864.56;;;22.21;38.26
42007;BME280;27696;42.704;23.304;2022-10-23T03:45:57;95866.06;;;22.22;38.07
42007;BME280;27696;42.704;23.304;2022-10-23T03:48:22;95861.94;;;22.12;37.99
42007;BME280;27696;42.704;23.304;2022-10-23T03:50:49;95866.00;;;22.02;38.04
42007;BME280;27696;42.704;23.304;2022-10-23T03:53:15;95866.94;;;22.14;37.83
42007;BME280;27696;42.704;23.304;2022-10-23T03:55:40;95865.94;;;22.32;37.43
42007;BME280;27696;42.704;23.304;2022-10-23T03:58:06;95878.22;;;22.21;37.60
42007;BME280;27696;42.704;23.304;2022-10-23T04:00:33;95877.38;;;22.30;37.13
42007;BME280;27696;42.704;23.304;2022-10-23T04:02:58;95876.63;;;22.30;37.39
42007;BME280;27696;42.704;23.304;2022-10-23T04:05:24;95882.13;;;22.00;37.88
42007;BME280;27696;42.704;23.304;2022-10-23T04:07:51;95877.97;;;21.59;38.36
42007;BME280;27696;42.704;23.304;2022-10-23T04:10:18;95881.91;;;22.03;37.44
42007;BME280;27696;42.704;23.304;2022-10-23T04:12:43;95873.47;;;22.01;37.63
42007;BME280;27696;42.704;23.304;2022-10-23T04:15:09;95880.31;;;21.67;37.52
42007;BME280;27696;42.704;23.304;2022-10-23T04:17:35;95875.69;;;22.18;36.71
42007;BME280;27696;42.704;23.304;2022-10-23T04:20:01;95880.38;;;21.57;37.25
42007;BME280;27696;42.704;23.304;2022-10-23T04:22:27;95886.09;;;21.69;36.64
42007;BME280;27696;42.704;23.304;2022-10-23T04:24:52;95872.16;;;21.97;35.99
42007;BME280;27696;42.704;23.304;2022-10-23T04:27:18;95874.78;;;21.91;35.72
42007;BME280;27696;42.704;23.304;2022-10-23T04:29:43;95877.56;;;22.26;34.89
42007;BME280;27696;42.704;23.304;2022-10-23T04:32:09;95882.06;;;22.60;34.16
42007;BME280;27696;42.704;23.304;2022-10-23T04:34:36;95880.31;;;22.26;34.60
42007;BME280;27696;42.704;23.304;2022-10-23T04:37:01;95887.88;;;22.67;34.19
42007;BME280;27696;42.704;23.304;2022-10-23T04:39:28;95885.84;;;23.03;33.26
42007;BME280;27696;42.704;23.304;2022-10-23T04:41:53;95888.50;;;23.18;33.02
42007;BME280;27696;42.704;23.304;2022-10-23T04:44:20;95888.78;;;22.79;33.62
42007;BME280;27696;42.704;23.304;2022-10-23T04:46:47;95887.53;;;22.60;33.81
42007;BME280;27696;42.704;23.304;2022-10-23T04:49:12;95886.47;;;22.72;33.57
42007;BME280;27696;42.704;23.304;2022-10-23T04:51:38;95889.59;;;22.85;33.18
42007;BME280;27696;42.704;23.304;2022-10-23T04:54:04;95875.09;;;23.21;32.90
42007;BME280;27696;42.704;23.304;2022-10-23T04:56:29;95882.84;;;23.43;32.11
42007;BME280;27696;42.704;23.304;2022-10-23T04:58:56;95895.47;;;23.61;32.47
42007;BME280;27696;42.704;23.304;2022-10-23T05:01:22;95899.47;;;22.98;34.15
42007;BME280;27696;42.704;23.304;2022-10-23T05:03:49;95897.94;;;22.25;35.39
42007;BME280;27696;42.704;23.304;2022-10-23T05:06:14;95902.84;;;22.87;34.10
42007;BME280;27696;42.704;23.304;2022-10-23T05:08:40;95900.84;;;22.87;34.24
42007;BME280;27696;42.704;23.304;2022-10-23T05:11:05;95901.84;;;23.26;32.89
42007;BME280;27696;42.704;23.304;2022-10-23T05:13:31;95905.66;;;23.13;33.82
42007;BME280;27696;42.704;23.304;2022-10-23T05:15:57;95912.06;;;23.52;32.54
42007;BME280;27696;42.704;23.304;2022-10-23T05:18:28;95899.59;;;23.77;31.86
42007;BME280;27696;42.704;23.304;2022-10-23T05:21:00;95908.66;;;23.15;32.20
42007;BME280;27696;42.704;23.304;2022-10-23T05:23:29;95900.16;;;23.55;32.62
42007;BME280;27696;42.704;23.304;2022-10-23T05:26:02;95913.78;;;23.49;31.82
42007;BME280;27696;42.704;23.304;2022-10-23T05:28:28;95904.78;;;23.69;31.37
42007;BME280;27696;42.704;23.304;2022-10-23T05:30:53;95916.78;;;23.72;31.52
42007;BME280;27696;42.704;23.304;2022-10-23T05:33:20;95919.13;;;24.11;31.05
42007;BME280;27696;42.704;23.304;2022-10-23T05:35:46;95930.25;;;23.75;31.66
42007;BME280;27696;42.704;23.304;2022-10-23T05:38:12;95931.06;;;24.02;31.08
42007;BME280;27696;42.704;23.304;2022-10-23T05:40:37;95937.03;;;23.54;31.60
42007;BME280;27696;42.704;23.304;2022-10-23T05:43:03;95944.63;;;23.44;31.84
42007;BME280;27696;42.704;23.304;2022-10-23T05:45:30;95946.56;;;23.85;31.44
42007;BME280;27696;42.704;23.304;2022-10-23T05:47:56;95949.25;;;23.32;31.99
42007;BME280;27696;42.704;23.304;2022-10-23T05:50:22;95947.44;;;23.29;32.40
42007;BME280;27696;42.704;23.304;2022-10-23T05:52:48;95950.84;;;23.65;32.02
42007;BME280;27696;42.704;23.304;2022-10-23T05:55:15;95960.75;;;23.36;32.76
42007;BME280;27696;42.704;23.304;2022-10-23T05:57:44;95969.34;;;23.91;32.55
42007;BME280;27696;42.704;23.304;2022-10-23T06:00:10;95969.09;;;23.68;33.22
42007;BME280;27696;42.704;23.304;2022-10-23T06:02:37;95980.34;;;23.70;33.28
42007;BME280;27696;42.704;23.304;2022-10-23T06:05:04;95971.19;;;23.79;33.65
42007;BME280;27696;42.704;23.304;2022-10-23T06:07:31;95978.41;;;23.76;33.53
42007;BME280;27696;42.704;23.304;2022-10-23T06:09:56;95983.88;;;23.97;33.36
42007;BME280;27696;42.704;23.304;2022-10-23T06:12:34;95983.13;;;24.87;32.26
42007;BME280;27696;42.704;23.304;2022-10-23T06:15:09;95999.56;;;24.49;33.61
42007;BME280;27696;42.704;23.304;2022-10-23T06:17:36;95996.09;;;24.54;34.07
42007;BME280;27696;42.704;23.304;2022-10-23T06:20:02;95990.03;;;24.71;34.24
42007;BME280;27696;42.704;23.304;2022-10-23T06:22:28;95996.47;;;24.09;35.81
42007;BME280;27696;42.704;23.304;2022-10-23T06:24:54;95994.53;;;24.16;35.73
42007;BME280;27696;42.704;23.304;2022-10-23T06:27:22;95988.50;;;25.08;34.47
42007;BME280;27696;42.704;23.304;2022-10-23T06:29:48;95996.75;;;25.08;34.70
42007;BME280;27696;42.704;23.304;2022-10-23T06:32:16;95996.69;;;24.32;36.07
42007;BME280;27696;42.704;23.304;2022-10-23T06:34:42;95986.75;;;24.40;36.04
42007;BME280;27696;42.704;23.304;2022-10-23T06:37:09;95980.41;;;24.55;36.54
42007;BME280;27696;42.704;23.304;2022-10-23T06:39:37;95988.88;;;24.57;36.68
42007;BME280;27696;42.704;23.304;2022-10-23T06:42:05;95999.75;;;23.93;38.00
42007;BME280;27696;42.704;23.304;2022-10-23T06:44:33;95998.03;;;24.16;37.77
42007;BME280;27696;42.704;23.304;2022-10-23T06:46:59;95999.13;;;23.77;38.30
42007;BME280;27696;42.704;23.304;2022-10-23T06:49:26;96011.16;;;23.86;38.61
42007;BME280;27696;42.704;23.304;2022-10-23T06:51:52;96011.75;;;24.16;38.19
42007;BME280;27696;42.704;23.304;2022-10-23T06:54:18;95997.84;;;25.27;36.22
42007;BME280;27696;42.704;23.304;2022-10-23T06:56:45;96010.00;;;24.71;37.08
42007;BME280;27696;42.704;23.304;2022-10-23T06:59:10;96012.91;;;24.62;37.60
42007;BME280;27696;42.704;23.304;2022-10-23T07:01:38;96011.59;;;24.84;37.03
42007;BME280;27696;42.704;23.304;2022-10-23T07:04:05;96010.53;;;24.76;37.56
42007;BME280;27696;42.704;23.304;2022-10-23T07:06:30;96025.81;;;24.82;37.15
42007;BME280;27696;42.704;23.304;2022-10-23T07:08:56;96018.03;;;25.68;35.98
42007;BME280;27696;42.704;23.304;2022-10-23T07:11:22;96020.03;;;25.61;36.22
42007;BME280;27696;42.704;23.304;2022-10-23T07:13:48;96020.31;;;25.69;36.11
42007;BME280;27696;42.704;23.304;2022-10-23T07:16:15;96021.94;;;24.68;38.03
42007;BME280;27696;42.704;23.304;2022-10-23T07:18:41;96027.25;;;24.46;38.58
42007;BME280;27696;42.704;23.304;2022-10-23T07:21:06;96019.78;;;25.59;36.68
42007;BME280;27696;42.704;23.304;2022-10-23T07:23:32;96024.59;;;24.89;38.18
42007;BME280;27696;42.704;23.304;2022-10-23T07:26:03;96032.34;;;25.28;37.50
42007;BME280;27696;42.704;23.304;2022-10-23T07:28:30;96038.03;;;23.81;40.35
42007;BME280;27696;42.704;23.304;2022-10-23T07:30:59;96034.69;;;24.39;38.94
42007;BME280;27696;42.704;23.304;2022-10-23T07:33:24;96031.50;;;25.60;36.98
42007;BME280;27696;42.704;23.304;2022-10-23T07:35:50;96022.66;;;24.95;37.89
42007;BME280;27696;42.704;23.304;2022-10-23T07:38:15;96025.50;;;25.50;37.11
42007;BME280;27696;42.704;23.304;2022-10-23T07:40:41;96021.00;;;25.53;36.48
42007;BME280;27696;42.704;23.304;2022-10-23T07:43:07;96021.66;;;25.96;35.43
42007;BME280;27696;42.704;23.304;2022-10-23T07:45:33;96008.72;;;25.04;37.01
42007;BME280;27696;42.704;23.304;2022-10-23T07:47:58;96016.19;;;24.08;37.64
42007;BME280;27696;42.704;23.304;2022-10-23T07:50:25;96011.19;;;25.02;36.06
42007;BME280;27696;42.704;23.304;2022-10-23T07:52:51;96018.91;;;26.02;34.76
42007;BME280;27696;42.704;23.304;2022-10-23T07:55:18;96021.50;;;26.40;34.22
42007;BME280;27696;42.704;23.304;2022-10-23T07:57:43;96030.59;;;25.31;35.98
42007;BME280;27696;42.704;23.304;2022-10-23T08:00:10;96017.72;;;26.20;34.97
42007;BME280;27696;42.704;23.304;2022-10-23T08:02:36;96015.47;;;25.47;35.89
42007;BME280;27696;42.704;23.304;2022-10-23T08:05:03;96025.22;;;25.04;36.88
42007;BME280;27696;42.704;23.304;2022-10-23T08:07:29;96013.41;;;26.02;35.58
42007;BME280;27696;42.704;23.304;2022-10-23T08:09:54;96023.25;;;26.77;34.59
42007;BME280;27696;42.704;23.304;2022-10-23T08:12:20;96042.09;;;25.29;36.73
42007;BME280;27696;42.704;23.304;2022-10-23T08:14:46;96027.44;;;25.44;36.51
42007;BME280;27696;42.704;23.304;2022-10-23T08:17:11;96029.97;;;25.42;36.83
42007;BME280;27696;42.704;23.304;2022-10-23T08:19:37;96032.50;;;24.76;38.14
42007;BME280;27696;42.704;23.304;2022-10-23T08:22:02;96029.72;;;25.08;37.36
42007;BME280;27696;42.704;23.304;2022-10-23T08:24:28;96016.78;;;24.50;38.77
42007;BME280;27696;42.704;23.304;2022-10-23T08:26:53;96017.50;;;25.52;36.81
42007;BME280;27696;42.704;23.304;2022-10-23T08:29:20;96015.59;;;25.26;37.33
42007;BME280;27696;42.704;23.304;2022-10-23T08:31:51;96027.09;;;25.74;37.01
42007;BME280;27696;42.704;23.304;2022-10-23T08:34:17;96047.59;;;25.73;36.96
42007;BME280;27696;42.704;23.304;2022-10-23T08:36:43;96028.22;;;25.07;37.72
42007;BME280;27696;42.704;23.304;2022-10-23T08:39:09;96046.06;;;24.85;38.22
42007;BME280;27696;42.704;23.304;2022-10-23T08:41:39;96026.53;;;25.58;37.15
42007;BME280;27696;42.704;23.304;2022-10-23T08:44:27;96029.50;;;25.55;36.89
42007;BME280;27696;42.704;23.304;2022-10-23T08:47:11;96035.88;;;25.84;36.56
42007;BME280;27696;42.704;23.304;2022-10-23T08:49:41;96018.38;;;25.87;36.88
42007;BME280;27696;42.704;23.304;2022-10-23T08:55:15;96015.13;;;25.33;37.66
42007;BME280;27696;42.704;23.304;2022-10-23T08:57:44;96011.91;;;25.35;37.71
42007;BME280;27696;42.704;23.304;2022-10-23T09:00:14;96016.19;;;24.98;38.02
42007;BME280;27696;42.704;23.304;2022-10-23T09:02:50;96013.47;;;26.42;36.08
42007;BME280;27696;42.704;23.304;2022-10-23T09:05:24;96022.75;;;26.27;36.24
42007;BME280;27696;42.704;23.304;2022-10-23T09:10:56;96015.47;;;27.21;34.86
42007;BME280;27696;42.704;23.304;2022-10-23T09:13:39;96021.56;;;25.68;37.27
42007;BME280;27696;42.704;23.304;2022-10-23T09:16:13;96016.88;;;25.86;36.68
42007;BME280;27696;42.704;23.304;2022-10-23T09:18:41;96016.47;;;26.38;35.78
42007;BME280;27696;42.704;23.304;2022-10-23T09:21:10;96021.75;;;25.53;36.83
42007;BME280;27696;42.704;23.304;2022-10-23T09:23:35;96024.75;;;26.44;35.72
42007;BME280;27696;42.704;23.304;2022-10-23T09:26:03;96014.56;;;25.67;36.51
42007;BME280;27696;42.704;23.304;2022-10-23T09:28:35;96010.22;;;26.15;35.70
42007;BME280;27696;42.704;23.304;2022-10-23T09:31:06;96001.44;;;27.13;34.54
42007;BME280;27696;42.704;23.304;2022-10-23T09:33:33;95995.72;;;26.88;34.49
42007;BME280;27696;42.704;23.304;2022-10-23T09:36:07;96000.00;;;27.71;33.26
42007;BME280;27696;42.704;23.304;2022-10-23T09:41:12;95993.25;;;27.67;33.27
42007;BME280;27696;42.704;23.304;2022-10-23T09:43:39;95995.56;;;27.57;32.45
42007;BME280;27696;42.704;23.304;2022-10-23T09:46:05;96006.63;;;27.45;32.88
42007;BME280;27696;42.704;23.304;2022-10-23T09:48:37;96000.09;;;28.02;32.30
42007;BME280;27696;42.704;23.304;2022-10-23T09:51:21;96006.78;;;27.64;32.75
42007;BME280;27696;42.704;23.304;2022-10-23T09:53:49;95995.66;;;28.29;31.79
42007;BME280;27696;42.704;23.304;2022-10-23T10:01:48;95994.22;;;26.87;32.99
42007;BME280;27696;42.704;23.304;2022-10-23T10:04:17;95982.50;;;28.41;31.35
42007;BME280;27696;42.704;23.304;2022-10-23T10:06:44;95990.50;;;28.14;31.35
42007;BME280;27696;42.704;23.304;2022-10-23T10:09:15;95995.06;;;28.06;31.49
42007;BME280;27696;42.704;23.304;2022-10-23T10:11:46;95986.13;;;27.83;31.57
42007;BME280;27696;42.704;23.304;2022-10-23T10:17:07;95979.66;;;28.22;30.68
42007;BME280;27696;42.704;23.304;2022-10-23T10:19:42;95971.28;;;28.33;29.85
42007;BME280;27696;42.704;23.304;2022-10-23T10:25:17;95971.53;;;27.93;30.14
42007;BME280;27696;42.704;23.304;2022-10-23T10:39:24;95977.03;;;28.35;29.28
42007;BME280;27696;42.704;23.304;2022-10-23T10:42:02;95972.19;;;28.05;30.08
42007;BME280;27696;42.704;23.304;2022-10-23T10:45:07;95967.78;;;27.91;30.07
42007;BME280;27696;42.704;23.304;2022-10-23T10:55:54;95955.22;;;28.93;29.43
42007;BME280;27696;42.704;23.304;2022-10-23T11:01:18;95954.78;;;28.83;29.11
42007;BME280;27696;42.704;23.304;2022-10-23T11:03:56;95934.66;;;28.88;28.93
42007;BME280;27696;42.704;23.304;2022-10-23T11:06:31;95938.09;;;28.64;28.55
42007;BME280;27696;42.704;23.304;2022-10-23T11:09:02;95952.41;;;29.17;28.59
42007;BME280;27696;42.704;23.304;2022-10-23T11:11:32;95950.03;;;28.53;29.39
42007;BME280;27696;42.704;23.304;2022-10-23T11:14:00;95937.75;;;29.03;28.58
42007;BME280;27696;42.704;23.304;2022-10-23T11:16:35;95927.94;;;29.02;28.72
42007;BME280;27696;42.704;23.304;2022-10-23T11:21:46;95928.56;;;29.58;28.11
42007;BME280;27696;42.704;23.304;2022-10-23T11:37:42;95902.19;;;29.13;28.34
42007;BME280;27696;42.704;23.304;2022-10-23T11:42:54;95887.19;;;29.66;28.01
42007;BME280;27696;42.704;23.304;2022-10-23T11:50:53;95889.97;;;29.47;27.65
42007;BME280;27696;42.704;23.304;2022-10-23T12:06:51;95878.19;;;29.79;27.48
42007;BME280;27696;42.704;23.304;2022-10-23T12:12:33;95878.59;;;29.31;27.68
42007;BME280;27696;42.704;23.304;2022-10-23T12:17:39;95881.06;;;30.06;26.33
42007;BME280;27696;42.704;23.304;2022-10-23T12:20:17;95870.19;;;29.56;26.83
42007;BME280;27696;42.704;23.304;2022-10-23T12:28:20;95868.63;;;30.13;26.56
42007;BME280;27696;42.704;23.304;2022-10-23T12:30:54;95877.03;;;29.88;26.55
42007;BME280;27696;42.704;23.304;2022-10-23T12:34:09;95866.13;;;31.22;25.18
42007;BME280;27696;42.704;23.304;2022-10-23T12:39:50;95867.75;;;30.77;25.63
42007;BME280;27696;42.704;23.304;2022-10-23T12:41:52;95858.81;;;30.71;25.81
42007;BME280;27696;42.704;23.304;2022-10-23T12:44:20;95857.06;;;31.70;24.54
42007;BME280;27696;42.704;23.304;2022-10-23T12:46:47;95871.50;;;31.55;24.65
42007;BME280;27696;42.704;23.304;2022-10-23T12:49:20;95867.13;;;30.11;26.02
42007;BME280;27696;42.704;23.304;2022-10-23T12:54:32;95876.97;;;30.39;25.40
42007;BME280;27696;42.704;23.304;2022-10-23T12:57:21;95882.25;;;30.56;25.45
42007;BME280;27696;42.704;23.304;2022-10-23T12:59:49;95871.72;;;32.13;23.88
42007;BME280;27696;42.704;23.304;2022-10-23T13:02:29;95864.84;;;32.85;23.32
42007;BME280;27696;42.704;23.304;2022-10-23T13:04:57;95865.94;;;31.68;24.06
42007;BME280;27696;42.704;23.304;2022-10-23T13:07:28;95872.03;;;30.65;25.14
42007;BME280;27696;42.704;23.304;2022-10-23T13:09:54;95870.75;;;30.79;25.02
42007;BME280;27696;42.704;23.304;2022-10-23T13:17:42;95869.91;;;31.80;24.25
42007;BME280;27696;42.704;23.304;2022-10-23T13:25:39;95860.94;;;30.92;24.52
42007;BME280;27696;42.704;23.304;2022-10-23T13:30:57;95876.25;;;30.52;24.93
42007;BME280;27696;42.704;23.304;2022-10-23T13:33:30;95865.69;;;31.66;24.16
42007;BME280;27696;42.704;23.304;2022-10-23T13:36:17;95871.69;;;32.84;23.26
42007;BME280;27696;42.704;23.304;2022-10-23T13:38:46;95877.59;;;31.53;24.09
42007;BME280;27696;42.704;23.304;2022-10-23T13:44:20;95875.81;;;31.77;23.98
42007;BME280;27696;42.704;23.304;2022-10-23T13:46:48;95881.41;;;30.88;24.83
42007;BME280;27696;42.704;23.304;2022-10-23T13:49:17;95874.47;;;30.82;24.60
42007;BME280;27696;42.704;23.304;2022-10-23T13:51:55;95883.75;;;30.84;24.67
42007;BME280;27696;42.704;23.304;2022-10-23T13:54:25;95885.91;;;30.78;24.56
42007;BME280;27696;42.704;23.304;2022-10-23T13:56:54;95872.25;;;30.80;24.44
42007;BME280;27696;42.704;23.304;2022-10-23T13:59:22;95870.63;;;30.71;24.42
42007;BME280;27696;42.704;23.304;2022-10-23T14:01:49;95878.84;;;30.77;24.64
42007;BME280;27696;42.704;23.304;2022-10-23T14:04:18;95862.00;;;30.88;24.58
42007;BME280;27696;42.704;23.304;2022-10-23T14:06:47;95873.03;;;30.35;25.19
42007;BME280;27696;42.704;23.304;2022-10-23T14:09:15;95873.28;;;31.31;24.49
42007;BME280;27696;42.704;23.304;2022-10-23T14:11:44;95864.84;;;31.71;24.37
42007;BME280;27696;42.704;23.304;2022-10-23T14:14:10;95872.34;;;30.61;25.40
42007;BME280;27696;42.704;23.304;2022-10-23T14:16:39;95870.16;;;30.40;25.75
42007;BME280;27696;42.704;23.304;2022-10-23T14:19:07;95866.03;;;30.87;25.46
42007;BME280;27696;42.704;23.304;2022-10-23T14:21:36;95874.44;;;29.95;26.38
42007;BME280;27696;42.704;23.304;2022-10-23T14:24:03;95874.25;;;29.55;26.99
42007;BME280;27696;42.704;23.304;2022-10-23T14:26:32;95858.50;;;30.15;26.46
42007;BME280;27696;42.704;23.304;2022-10-23T14:29:03;95866.81;;;30.15;26.74
42007;BME280;27696;42.704;23.304;2022-10-23T14:31:30;95857.94;;;30.49;26.38
42007;BME280;27696;42.704;23.304;2022-10-23T14:34:02;95867.66;;;29.58;27.33
42007;BME280;27696;42.704;23.304;2022-10-23T14:36:30;95852.56;;;30.24;26.75
42007;BME280;27696;42.704;23.304;2022-10-23T14:39:02;95856.41;;;29.89;27.23
42007;BME280;27696;42.704;23.304;2022-10-23T14:41:31;95863.00;;;29.67;27.59
42007;BME280;27696;42.704;23.304;2022-10-23T14:44:02;95851.16;;;29.85;27.58
42007;BME280;27696;42.704;23.304;2022-10-23T14:46:29;95863.16;;;29.55;27.82
42007;BME280;27696;42.704;23.304;2022-10-23T14:49:01;95863.31;;;29.63;27.69
42007;BME280;27696;42.704;23.304;2022-10-23T14:51:28;95853.00;;;31.09;26.09
42007;BME280;27696;42.704;23.304;2022-10-23T14:54:02;95855.78;;;30.96;26.28
42007;BME280;27696;42.704;23.304;2022-10-23T14:56:32;95859.06;;;31.34;25.89
42007;BME280;27696;42.704;23.304;2022-10-23T14:59:03;95870.28;;;30.48;26.69
42007;BME280;27696;42.704;23.304;2022-10-23T15:01:30;95873.94;;;30.56;26.75
42007;BME280;27696;42.704;23.304;2022-10-23T15:03:59;95871.44;;;30.39;26.93
42007;BME280;27696;42.704;23.304;2022-10-23T15:06:28;95867.28;;;30.46;27.00
42007;BME280;27696;42.704;23.304;2022-10-23T15:08:56;95879.09;;;29.68;27.79
42007;BME280;27696;42.704;23.304;2022-10-23T15:11:24;95875.72;;;29.94;27.40
42007;BME280;27696;42.704;23.304;2022-10-23T15:13:53;95881.09;;;30.19;27.46
42007;BME280;27696;42.704;23.304;2022-10-23T15:16:22;95885.31;;;29.55;27.82
42007;BME280;27696;42.704;23.304;2022-10-23T15:18:49;95875.88;;;29.07;28.60